sensor_id;sensor_type;location;lat;lon;timestamp;temperature;humidity
45383;DHT22;42455;51.660;5.824;2023-05-19T00:01:45;11.8;72.0
45383;DHT22;42455;51.660;5.824;2023-05-19T00:06:52;11.7;72.0
45383;DHT22;42455;51.660;5.824;2023-05-19T00:11:57;11.7;72.5
45383;DHT22;42455;51.660;5.824;2023-05-19T00:17:03;11.6;72.5
45383;DHT22;42455;51.660;5.824;2023-05-19T00:22:09;11.6;72.5
45383;DHT22;42455;51.660;5.824;2023-05-19T00:27:15;11.6;73.0
45383;DHT22;42455;51.660;5.824;2023-05-19T00:32:21;11.5;73.0
45383;DHT22;42455;51.660;5.824;2023-05-19T00:37:28;11.5;73.5
45383;DHT22;42455;51.660;5.824;2023-05-19T00:42:34;11.4;73.5
45383;DHT22;42455;51.660;5.824;2023-05-19T00:47:40;11.4;74.0
45383;DHT22;42455;51.660;5.824;2023-05-19T00:52:46;11.4;74.0
45383;DHT22;42455;51.660;5.824;2023-05-19T00:57:54;11.4;74.5
45383;DHT22;42455;51.660;5.824;2023-05-19T01:02:59;11.3;74.5
45383;DHT22;42455;51.660;5.824;2023-05-19T01:08:05;11.3;75.0
45383;DHT22;42455;51.660;5.824;2023-05-19T01:13:11;11.3;75.0
45383;DHT22;42455;51.660;5.824;2023-05-19T01:18:30;11.2;75.5
45383;DHT22;42455;51.660;5.824;2023-05-19T01:24:44;11.2;75.5
45383;DHT22;42455;51.660;5.824;2023-05-19T01:30:43;11.1;76.0
45383;DHT22;42455;51.660;5.824;2023-05-19T01:33:38;11.1;76.5
45383;DHT22;42455;51.660;5.824;2023-05-19T01:38:43;11.1;76.5
45383;DHT22;42455;51.660;5.824;2023-05-19T01:43:49;11.0;76.5
45383;DHT22;42455;51.660;5.824;2023-05-19T01:48:55;11.0;77.0
45383;DHT22;42455;51.660;5.824;2023-05-19T01:54:01;11.0;77.0
45383;DHT22;42455;51.660;5.824;2023-05-19T01:59:19;10.9;77.0
45383;DHT22;42455;51.660;5.824;2023-05-19T02:04:39;10.9;77.0
45383;DHT22;42455;51.660;5.824;2023-05-19T02:09:24;10.9;77.5
45383;DHT22;42455;51.660;5.824;2023-05-19T02:14:34;10.9;78.0
45383;DHT22;42455;51.660;5.824;2023-05-19T02:19:38;10.8;78.0
45383;DHT22;42455;51.660;5.824;2023-05-19T02:24:38;10.8;78.0
45383;DHT22;42455;51.660;5.824;2023-05-19T02:29:44;10.8;78.5
45383;DHT22;42455;51.660;5.824;2023-05-19T02:34:50;10.7;78.5
45383;DHT22;42455;51.660;5.824;2023-05-19T02:39:57;10.7;78.5
45383;DHT22;42455;51.660;5.824;2023-05-19T02:45:03;10.7;79.0
45383;DHT22;42455;51.660;5.824;2023-05-19T02:50:09;10.6;79.0
45383;DHT22;42455;51.660;5.824;2023-05-19T02:55:15;10.6;79.5
45383;DHT22;42455;51.660;5.824;2023-05-19T03:00:20;10.6;79.5
45383;DHT22;42455;51.660;5.824;2023-05-19T03:05:27;10.5;79.5
45383;DHT22;42455;51.660;5.824;2023-05-19T03:10:33;10.5;80.0
45383;DHT22;42455;51.660;5.824;2023-05-19T03:15:39;10.5;80.0
45383;DHT22;42455;51.660;5.824;2023-05-19T03:20:45;10.4;80.5
45383;DHT22;42455;51.660;5.824;2023-05-19T03:25:52;10.4;80.5
45383;DHT22;42455;51.660;5.824;2023-05-19T03:30:58;10.4;80.5
45383;DHT22;42455;51.660;5.824;2023-05-19T03:36:04;10.3;81.0
45383;DHT22;42455;51.660;5.824;2023-05-19T03:41:10;10.3;81.0
45383;DHT22;42455;51.660;5.824;2023-05-19T03:46:16;10.3;81.5
45383;DHT22;42455;51.660;5.824;2023-05-19T03:51:22;10.3;81.5
45383;DHT22;42455;51.660;5.824;2023-05-19T03:56:29;10.3;81.5
45383;DHT22;42455;51.660;5.824;2023-05-19T04:01:35;10.3;82.0
45383;DHT22;42455;51.660;5.824;2023-05-19T04:06:41;10.2;82.0
45383;DHT22;42455;51.660;5.824;2023-05-19T04:11:47;10.2;82.0
45383;DHT22;42455;51.660;5.824;2023-05-19T04:16:54;10.2;82.5
45383;DHT22;42455;51.660;5.824;2023-05-19T04:22:00;10.2;83.0
45383;DHT22;42455;51.660;5.824;2023-05-19T04:27:06;10.2;83.0
45383;DHT22;42455;51.660;5.824;2023-05-19T04:32:12;10.2;83.0
45383;DHT22;42455;51.660;5.824;2023-05-19T04:37:18;10.3;83.5
45383;DHT22;42455;51.660;5.824;2023-05-19T04:42:25;10.3;83.5
45383;DHT22;42455;51.660;5.824;2023-05-19T04:47:31;10.3;83.5
45383;DHT22;42455;51.660;5.824;2023-05-19T04:52:37;10.3;84.0
45383;DHT22;42455;51.660;5.824;2023-05-19T04:57:43;10.4;84.0
45383;DHT22;42455;51.660;5.824;2023-05-19T05:02:49;10.4;84.0
45383;DHT22;42455;51.660;5.824;2023-05-19T05:07:56;10.5;84.5
45383;DHT22;42455;51.660;5.824;2023-05-19T05:13:02;10.5;84.5
45383;DHT22;42455;51.660;5.824;2023-05-19T05:18:08;10.6;84.5
45383;DHT22;42455;51.660;5.824;2023-05-19T05:23:14;10.6;85.0
45383;DHT22;42455;51.660;5.824;2023-05-19T05:28:20;10.7;85.0
45383;DHT22;42455;51.660;5.824;2023-05-19T05:33:27;10.8;85.0
45383;DHT22;42455;51.660;5.824;2023-05-19T05:38:33;10.9;85.0
45383;DHT22;42455;51.660;5.824;2023-05-19T05:43:39;11.0;85.5
45383;DHT22;42455;51.660;5.824;2023-05-19T05:48:46;11.1;85.5
45383;DHT22;42455;51.660;5.824;2023-05-19T05:53:54;11.2;85.5
45383;DHT22;42455;51.660;5.824;2023-05-19T05:58:58;11.4;85.5
45383;DHT22;42455;51.660;5.824;2023-05-19T06:04:04;11.5;85.5
45383;DHT22;42455;51.660;5.824;2023-05-19T06:09:10;11.7;85.5
45383;DHT22;42455;51.660;5.824;2023-05-19T06:14:16;11.9;86.0
45383;DHT22;42455;51.660;5.824;2023-05-19T06:19:23;12.2;85.5
45383;DHT22;42455;51.660;5.824;2023-05-19T06:24:29;12.4;85.5
45383;DHT22;42455;51.660;5.824;2023-05-19T06:29:35;12.7;85.0
45383;DHT22;42455;51.660;5.824;2023-05-19T06:34:41;12.8;84.5
45383;DHT22;42455;51.660;5.824;2023-05-19T06:39:47;13.0;83.5
45383;DHT22;42455;51.660;5.824;2023-05-19T06:44:54;13.1;83.5
45383;DHT22;42455;51.660;5.824;2023-05-19T06:50:00;13.3;83.5
45383;DHT22;42455;51.660;5.824;2023-05-19T06:55:06;13.5;83.5
45383;DHT22;42455;51.660;5.824;2023-05-19T07:00:12;13.9;84.0
45383;DHT22;42455;51.660;5.824;2023-05-19T07:05:19;14.3;83.0
45383;DHT22;42455;51.660;5.824;2023-05-19T07:10:25;14.7;82.5
45383;DHT22;42455;51.660;5.824;2023-05-19T07:15:31;15.0;81.5
45383;DHT22;42455;51.660;5.824;2023-05-19T07:20:37;15.3;80.5
45383;DHT22;42455;51.660;5.824;2023-05-19T07:25:43;15.6;80.5
45383;DHT22;42455;51.660;5.824;2023-05-19T07:30:50;15.9;79.0
45383;DHT22;42455;51.660;5.824;2023-05-19T07:35:56;16.2;78.0
45383;DHT22;42455;51.660;5.824;2023-05-19T07:41:02;16.5;77.5
45383;DHT22;42455;51.660;5.824;2023-05-19T07:46:08;16.8;76.5
45383;DHT22;42455;51.660;5.824;2023-05-19T07:51:14;17.1;75.5
45383;DHT22;42455;51.660;5.824;2023-05-19T07:56:21;17.3;75.0
45383;DHT22;42455;51.660;5.824;2023-05-19T08:01:28;17.5;74.0
45383;DHT22;42455;51.660;5.824;2023-05-19T08:06:33;17.7;73.0
45383;DHT22;42455;51.660;5.824;2023-05-19T08:11:39;17.9;72.5
45383;DHT22;42455;51.660;5.824;2023-05-19T08:16:45;18.2;72.5
45383;DHT22;42455;51.660;5.824;2023-05-19T08:21:52;18.4;71.5
45383;DHT22;42455;51.660;5.824;2023-05-19T08:26:58;18.6;70.5
45383;DHT22;42455;51.660;5.824;2023-05-19T08:32:03;18.7;70.0
45383;DHT22;42455;51.660;5.824;2023-05-19T08:37:09;19.0;70.0
45383;DHT22;42455;51.660;5.824;2023-05-19T08:42:15;19.2;69.0
45383;DHT22;42455;51.660;5.824;2023-05-19T08:47:22;19.4;67.5
45383;DHT22;42455;51.660;5.824;2023-05-19T08:52:42;19.6;67.5
45383;DHT22;42455;51.660;5.824;2023-05-19T08:57:35;19.8;66.0
45383;DHT22;42455;51.660;5.824;2023-05-19T09:02:40;19.8;66.0
45383;DHT22;42455;51.660;5.824;2023-05-19T09:07:46;20.0;66.0
45383;DHT22;42455;51.660;5.824;2023-05-19T09:12:52;20.2;66.0
45383;DHT22;42455;51.660;5.824;2023-05-19T09:18:06;20.3;65.0
45383;DHT22;42455;51.660;5.824;2023-05-19T09:23:04;20.3;64.5
45383;DHT22;42455;51.660;5.824;2023-05-19T09:28:10;20.3;64.0
45383;DHT22;42455;51.660;5.824;2023-05-19T09:33:18;20.3;63.5
45383;DHT22;42455;51.660;5.824;2023-05-19T09:38:23;20.4;61.5
45383;DHT22;42455;51.660;5.824;2023-05-19T09:43:30;20.5;61.0
45383;DHT22;42455;51.660;5.824;2023-05-19T09:48:36;20.6;60.5
45383;DHT22;42455;51.660;5.824;2023-05-19T09:53:45;20.6;59.0
45383;DHT22;42455;51.660;5.824;2023-05-19T09:58:48;20.7;59.0
45383;DHT22;42455;51.660;5.824;2023-05-19T10:03:54;20.8;59.0
45383;DHT22;42455;51.660;5.824;2023-05-19T10:09:00;20.8;58.0
45383;DHT22;42455;51.660;5.824;2023-05-19T10:14:06;20.8;58.0
45383;DHT22;42455;51.660;5.824;2023-05-19T10:19:12;20.8;59.0
45383;DHT22;42455;51.660;5.824;2023-05-19T10:24:19;20.9;58.5
45383;DHT22;42455;51.660;5.824;2023-05-19T10:29:27;21.0;58.5
45383;DHT22;42455;51.660;5.824;2023-05-19T10:35:05;21.1;58.5
45383;DHT22;42455;51.660;5.824;2023-05-19T10:39:42;21.2;58.0
45383;DHT22;42455;51.660;5.824;2023-05-19T10:45:12;21.3;57.5
45383;DHT22;42455;51.660;5.824;2023-05-19T10:49:50;21.4;57.0
45383;DHT22;42455;51.660;5.824;2023-05-19T10:54:56;21.5;57.5
45383;DHT22;42455;51.660;5.824;2023-05-19T11:00:03;21.7;57.0
45383;DHT22;42455;51.660;5.824;2023-05-19T11:05:11;21.8;57.0
45383;DHT22;42455;51.660;5.824;2023-05-19T11:10:21;21.9;57.0
45383;DHT22;42455;51.660;5.824;2023-05-19T11:15:25;22.1;56.0
45383;DHT22;42455;51.660;5.824;2023-05-19T11:20:28;22.1;55.5
45383;DHT22;42455;51.660;5.824;2023-05-19T11:25:40;22.2;55.5
45383;DHT22;42455;51.660;5.824;2023-05-19T11:30:40;22.2;54.5
45383;DHT22;42455;51.660;5.824;2023-05-19T11:35:46;22.1;55.0
45383;DHT22;42455;51.660;5.824;2023-05-19T11:40:52;22.3;55.0
45383;DHT22;42455;51.660;5.824;2023-05-19T11:45:58;22.3;54.0
45383;DHT22;42455;51.660;5.824;2023-05-19T11:51:05;22.4;55.0
45383;DHT22;42455;51.660;5.824;2023-05-19T11:56:10;22.6;55.0
45383;DHT22;42455;51.660;5.824;2023-05-19T12:01:17;22.8;54.0
45383;DHT22;42455;51.660;5.824;2023-05-19T12:06:24;22.9;54.0
45383;DHT22;42455;51.660;5.824;2023-05-19T12:11:29;22.9;53.0
45383;DHT22;42455;51.660;5.824;2023-05-19T12:16:35;23.0;53.0
45383;DHT22;42455;51.660;5.824;2023-05-19T12:21:42;23.0;53.5
45383;DHT22;42455;51.660;5.824;2023-05-19T12:26:48;23.0;53.5
45383;DHT22;42455;51.660;5.824;2023-05-19T12:31:54;23.0;53.0
45383;DHT22;42455;51.660;5.824;2023-05-19T12:37:00;23.0;53.0
45383;DHT22;42455;51.660;5.824;2023-05-19T12:42:08;22.8;52.5
45383;DHT22;42455;51.660;5.824;2023-05-19T12:47:13;22.8;53.0
45383;DHT22;42455;51.660;5.824;2023-05-19T12:52:19;22.8;53.5
45383;DHT22;42455;51.660;5.824;2023-05-19T12:57:25;22.9;52.5
45383;DHT22;42455;51.660;5.824;2023-05-19T13:02:32;22.8;52.0
45383;DHT22;42455;51.660;5.824;2023-05-19T13:07:37;22.7;52.5
45383;DHT22;42455;51.660;5.824;2023-05-19T13:12:43;22.9;53.0
45383;DHT22;42455;51.660;5.824;2023-05-19T13:17:50;23.1;52.5
45383;DHT22;42455;51.660;5.824;2023-05-19T13:22:56;23.2;52.5
45383;DHT22;42455;51.660;5.824;2023-05-19T13:28:03;23.3;52.5
45383;DHT22;42455;51.660;5.824;2023-05-19T13:33:08;23.4;52.0
45383;DHT22;42455;51.660;5.824;2023-05-19T13:38:15;23.5;51.5
45383;DHT22;42455;51.660;5.824;2023-05-19T13:43:21;23.5;51.5
45383;DHT22;42455;51.660;5.824;2023-05-19T13:48:27;23.5;51.5
45383;DHT22;42455;51.660;5.824;2023-05-19T13:53:33;23.6;52.0
45383;DHT22;42455;51.660;5.824;2023-05-19T13:58:40;23.7;51.5
45383;DHT22;42455;51.660;5.824;2023-05-19T14:03:46;23.7;51.0
45383;DHT22;42455;51.660;5.824;2023-05-19T14:08:52;23.7;51.0
45383;DHT22;42455;51.660;5.824;2023-05-19T14:13:58;23.7;50.5
45383;DHT22;42455;51.660;5.824;2023-05-19T14:19:04;23.6;49.5
45383;DHT22;42455;51.660;5.824;2023-05-19T14:24:10;23.5;50.0
45383;DHT22;42455;51.660;5.824;2023-05-19T14:29:17;23.5;50.5
45383;DHT22;42455;51.660;5.824;2023-05-19T14:34:22;23.6;51.0
45383;DHT22;42455;51.660;5.824;2023-05-19T14:39:28;23.6;51.0
45383;DHT22;42455;51.660;5.824;2023-05-19T14:44:34;23.7;50.5
45383;DHT22;42455;51.660;5.824;2023-05-19T14:49:41;23.8;50.0
45383;DHT22;42455;51.660;5.824;2023-05-19T14:54:47;23.9;50.5
45383;DHT22;42455;51.660;5.824;2023-05-19T14:59:54;23.9;50.5
45383;DHT22;42455;51.660;5.824;2023-05-19T15:04:59;23.9;50.0
45383;DHT22;42455;51.660;5.824;2023-05-19T15:10:06;23.8;49.5
45383;DHT22;42455;51.660;5.824;2023-05-19T15:15:12;23.9;50.0
45383;DHT22;42455;51.660;5.824;2023-05-19T15:20:18;23.9;49.5
45383;DHT22;42455;51.660;5.824;2023-05-19T15:25:24;23.9;49.5
45383;DHT22;42455;51.660;5.824;2023-05-19T15:30:31;23.8;49.5
45383;DHT22;42455;51.660;5.824;2023-05-19T15:35:36;23.8;49.5
45383;DHT22;42455;51.660;5.824;2023-05-19T15:40:43;23.9;50.0
45383;DHT22;42455;51.660;5.824;2023-05-19T15:45:49;24.1;50.0
45383;DHT22;42455;51.660;5.824;2023-05-19T15:50:55;24.2;49.5
45383;DHT22;42455;51.660;5.824;2023-05-19T15:56:01;24.3;49.5
45383;DHT22;42455;51.660;5.824;2023-05-19T16:01:07;24.5;49.0
45383;DHT22;42455;51.660;5.824;2023-05-19T16:06:14;24.7;48.5
45383;DHT22;42455;51.660;5.824;2023-05-19T16:11:20;24.8;47.5
45383;DHT22;42455;51.660;5.824;2023-05-19T16:16:26;24.6;47.0
45383;DHT22;42455;51.660;5.824;2023-05-19T16:21:32;24.4;47.5
45383;DHT22;42455;51.660;5.824;2023-05-19T16:26:38;24.4;47.5
45383;DHT22;42455;51.660;5.824;2023-05-19T16:31:45;24.4;48.0
45383;DHT22;42455;51.660;5.824;2023-05-19T16:36:51;24.5;47.5
45383;DHT22;42455;51.660;5.824;2023-05-19T16:41:57;24.5;47.0
45383;DHT22;42455;51.660;5.824;2023-05-19T16:47:03;24.5;47.5
45383;DHT22;42455;51.660;5.824;2023-05-19T16:52:10;24.6;47.5
45383;DHT22;42455;51.660;5.824;2023-05-19T16:57:16;24.6;47.0
45383;DHT22;42455;51.660;5.824;2023-05-19T17:02:22;24.6;46.5
45383;DHT22;42455;51.660;5.824;2023-05-19T17:07:28;24.5;47.0
45383;DHT22;42455;51.660;5.824;2023-05-19T17:12:34;24.4;47.0
45383;DHT22;42455;51.660;5.824;2023-05-19T17:17:41;24.3;47.0
45383;DHT22;42455;51.660;5.824;2023-05-19T17:22:47;24.1;46.5
45383;DHT22;42455;51.660;5.824;2023-05-19T17:27:53;24.0;47.0
45383;DHT22;42455;51.660;5.824;2023-05-19T17:32:59;24.0;47.0
45383;DHT22;42455;51.660;5.824;2023-05-19T17:38:05;23.9;47.0
45383;DHT22;42455;51.660;5.824;2023-05-19T17:43:12;23.9;47.0
45383;DHT22;42455;51.660;5.824;2023-05-19T17:48:18;23.8;46.5
45383;DHT22;42455;51.660;5.824;2023-05-19T17:53:25;23.8;47.0
45383;DHT22;42455;51.660;5.824;2023-05-19T17:58:31;23.6;46.5
45383;DHT22;42455;51.660;5.824;2023-05-19T18:03:37;23.5;46.5
45383;DHT22;42455;51.660;5.824;2023-05-19T18:08:43;23.3;46.5
45383;DHT22;42455;51.660;5.824;2023-05-19T18:13:49;23.1;47.0
45383;DHT22;42455;51.660;5.824;2023-05-19T18:18:55;22.9;47.0
45383;DHT22;42455;51.660;5.824;2023-05-19T18:24:01;22.7;47.0
45383;DHT22;42455;51.660;5.824;2023-05-19T18:29:08;22.5;47.5
45383;DHT22;42455;51.660;5.824;2023-05-19T18:34:14;22.4;48.5
45383;DHT22;42455;51.660;5.824;2023-05-19T19:40:34;19.8;52.5
45383;DHT22;42455;51.660;5.824;2023-05-19T19:45:41;19.5;52.5
45383;DHT22;42455;51.660;5.824;2023-05-19T19:50:51;19.3;53.5
45383;DHT22;42455;51.660;5.824;2023-05-19T19:55:55;19.1;53.5
45383;DHT22;42455;51.660;5.824;2023-05-19T20:01:01;18.9;54.5
45383;DHT22;42455;51.660;5.824;2023-05-19T20:06:05;18.7;54.5
45383;DHT22;42455;51.660;5.824;2023-05-19T20:11:11;18.5;55.0
45383;DHT22;42455;51.660;5.824;2023-05-19T20:16:17;18.4;55.5
45383;DHT22;42455;51.660;5.824;2023-05-19T20:21:23;18.2;56.0
45383;DHT22;42455;51.660;5.824;2023-05-19T20:26:29;18.1;56.5
45383;DHT22;42455;51.660;5.824;2023-05-19T20:31:36;18.0;57.0
45383;DHT22;42455;51.660;5.824;2023-05-19T20:36:42;17.8;57.0
45383;DHT22;42455;51.660;5.824;2023-05-19T20:41:48;17.7;57.5
45383;DHT22;42455;51.660;5.824;2023-05-19T20:46:54;17.6;57.5
45383;DHT22;42455;51.660;5.824;2023-05-19T20:52:01;17.5;58.0
45383;DHT22;42455;51.660;5.824;2023-05-19T20:57:07;17.4;58.5
45383;DHT22;42455;51.660;5.824;2023-05-19T21:02:13;17.3;58.5
45383;DHT22;42455;51.660;5.824;2023-05-19T21:07:19;17.2;59.0
45383;DHT22;42455;51.660;5.824;2023-05-19T21:12:25;17.1;59.0
45383;DHT22;42455;51.660;5.824;2023-05-19T21:17:31;17.0;59.5
45383;DHT22;42455;51.660;5.824;2023-05-19T21:22:38;16.9;59.5
45383;DHT22;42455;51.660;5.824;2023-05-19T21:27:44;16.9;60.0
45383;DHT22;42455;51.660;5.824;2023-05-19T21:32:50;16.8;60.0
45383;DHT22;42455;51.660;5.824;2023-05-19T21:37:56;16.7;60.5
45383;DHT22;42455;51.660;5.824;2023-05-19T21:43:03;16.7;60.5
45383;DHT22;42455;51.660;5.824;2023-05-19T21:48:09;16.6;61.0
45383;DHT22;42455;51.660;5.824;2023-05-19T21:53:15;16.5;61.0
45383;DHT22;42455;51.660;5.824;2023-05-19T21:58:21;16.5;61.5
45383;DHT22;42455;51.660;5.824;2023-05-19T22:03:27;16.4;61.5
45383;DHT22;42455;51.660;5.824;2023-05-19T22:08:34;16.4;61.5
45383;DHT22;42455;51.660;5.824;2023-05-19T22:13:40;16.3;62.0
45383;DHT22;42455;51.660;5.824;2023-05-19T22:18:46;16.3;62.0
45383;DHT22;42455;51.660;5.824;2023-05-19T22:23:52;16.2;62.0
45383;DHT22;42455;51.660;5.824;2023-05-19T22:28:58;16.2;62.5
45383;DHT22;42455;51.660;5.824;2023-05-19T22:34:05;16.2;62.5
45383;DHT22;42455;51.660;5.824;2023-05-19T22:39:11;16.2;63.0
45383;DHT22;42455;51.660;5.824;2023-05-19T22:44:17;16.1;63.0
45383;DHT22;42455;51.660;5.824;2023-05-19T22:49:23;16.1;63.5
45383;DHT22;42455;51.660;5.824;2023-05-19T22:59:36;16.1;63.5
45383;DHT22;42455;51.660;5.824;2023-05-19T23:04:42;16.0;64.0
45383;DHT22;42455;51.660;5.824;2023-05-19T23:09:48;16.0;64.5
45383;DHT22;42455;51.660;5.824;2023-05-19T23:14:54;15.9;65.0
45383;DHT22;42455;51.660;5.824;2023-05-19T23:20:00;15.9;65.0
45383;DHT22;42455;51.660;5.824;2023-05-19T23:25:07;15.9;65.5
45383;DHT22;42455;51.660;5.824;2023-05-19T23:30:13;15.8;66.0
45383;DHT22;42455;51.660;5.824;2023-05-19T23:35:19;15.8;66.0
45383;DHT22;42455;51.660;5.824;2023-05-19T23:40:25;15.7;66.5
45383;DHT22;42455;51.660;5.824;2023-05-19T23:45:32;15.7;67.0
45383;DHT22;42455;51.660;5.824;2023-05-19T23:50:38;15.7;67.0
45383;DHT22;42455;51.660;5.824;2023-05-19T23:55:44;15.6;67.5
